sensor_id;sensor_type;location;lat;lon;timestamp;temperature;humidity
64654;DHT22;51065;48.884;12.598;2023-04-15T00:01:59;6.50;99.90
64654;DHT22;51065;48.884;12.598;2023-04-15T00:04:25;6.50;99.90
64654;DHT22;51065;48.884;12.598;2023-04-15T00:06:51;6.50;99.90
64654;DHT22;51065;48.884;12.598;2023-04-15T00:09:18;6.50;99.90
64654;DHT22;51065;48.884;12.598;2023-04-15T00:11:44;6.50;99.90
64654;DHT22;51065;48.884;12.598;2023-04-15T00:14:11;6.50;99.90
64654;DHT22;51065;48.884;12.598;2023-04-15T00:16:36;6.50;99.90
64654;DHT22;51065;48.884;12.598;2023-04-15T00:19:02;6.60;99.90
64654;DHT22;51065;48.884;12.598;2023-04-15T00:21:27;6.50;99.90
64654;DHT22;51065;48.884;12.598;2023-04-15T00:23:53;6.50;99.90
64654;DHT22;51065;48.884;12.598;2023-04-15T00:26:19;6.50;99.90
64654;DHT22;51065;48.884;12.598;2023-04-15T00:28:45;6.50;99.90
64654;DHT22;51065;48.884;12.598;2023-04-15T00:31:11;6.50;99.90
64654;DHT22;51065;48.884;12.598;2023-04-15T00:33:36;6.50;99.90
64654;DHT22;51065;48.884;12.598;2023-04-15T00:36:03;6.50;99.90
64654;DHT22;51065;48.884;12.598;2023-04-15T00:38:28;6.50;99.90
64654;DHT22;51065;48.884;12.598;2023-04-15T00:40:54;6.50;99.90
64654;DHT22;51065;48.884;12.598;2023-04-15T00:43:44;6.50;99.90
64654;DHT22;51065;48.884;12.598;2023-04-15T00:46:12;6.50;99.90
64654;DHT22;51065;48.884;12.598;2023-04-15T00:48:38;6.50;99.90
64654;DHT22;51065;48.884;12.598;2023-04-15T00:51:05;6.50;99.90
64654;DHT22;51065;48.884;12.598;2023-04-15T00:53:32;6.50;99.90
64654;DHT22;51065;48.884;12.598;2023-04-15T00:55:57;6.50;99.90
64654;DHT22;51065;48.884;12.598;2023-04-15T00:58:23;6.50;99.90
64654;DHT22;51065;48.884;12.598;2023-04-15T01:00:49;6.50;99.90
64654;DHT22;51065;48.884;12.598;2023-04-15T01:03:18;6.50;99.90
64654;DHT22;51065;48.884;12.598;2023-04-15T01:05:45;6.50;99.90
64654;DHT22;51065;48.884;12.598;2023-04-15T01:08:11;6.50;99.90
64654;DHT22;51065;48.884;12.598;2023-04-15T01:10:37;6.50;99.90
64654;DHT22;51065;48.884;12.598;2023-04-15T01:13:03;6.50;99.90
64654;DHT22;51065;48.884;12.598;2023-04-15T01:15:28;6.50;99.90
64654;DHT22;51065;48.884;12.598;2023-04-15T01:17:57;6.50;99.90
64654;DHT22;51065;48.884;12.598;2023-04-15T01:20:23;6.50;99.90
64654;DHT22;51065;48.884;12.598;2023-04-15T01:22:48;6.50;99.90
64654;DHT22;51065;48.884;12.598;2023-04-15T01:25:18;6.50;99.90
64654;DHT22;51065;48.884;12.598;2023-04-15T01:27:44;6.40;99.90
64654;DHT22;51065;48.884;12.598;2023-04-15T01:30:10;6.40;99.90
64654;DHT22;51065;48.884;12.598;2023-04-15T01:32:36;6.40;99.90
64654;DHT22;51065;48.884;12.598;2023-04-15T01:35:01;6.30;99.90
64654;DHT22;51065;48.884;12.598;2023-04-15T01:37:28;6.30;99.90
64654;DHT22;51065;48.884;12.598;2023-04-15T01:39:53;6.30;99.90
64654;DHT22;51065;48.884;12.598;2023-04-15T01:42:20;6.30;99.90
64654;DHT22;51065;48.884;12.598;2023-04-15T01:44:46;6.30;99.90
64654;DHT22;51065;48.884;12.598;2023-04-15T01:47:11;6.30;99.90
64654;DHT22;51065;48.884;12.598;2023-04-15T01:49:37;6.20;99.90
64654;DHT22;51065;48.884;12.598;2023-04-15T01:52:03;6.20;99.90
64654;DHT22;51065;48.884;12.598;2023-04-15T01:54:28;6.20;99.90
64654;DHT22;51065;48.884;12.598;2023-04-15T01:56:54;6.30;99.90
64654;DHT22;51065;48.884;12.598;2023-04-15T01:59:19;6.30;99.90
64654;DHT22;51065;48.884;12.598;2023-04-15T02:01:45;6.30;99.90
64654;DHT22;51065;48.884;12.598;2023-04-15T02:04:10;6.20;99.90
64654;DHT22;51065;48.884;12.598;2023-04-15T02:06:42;6.20;99.90
64654;DHT22;51065;48.884;12.598;2023-04-15T02:09:08;6.20;99.90
64654;DHT22;51065;48.884;12.598;2023-04-15T02:11:34;6.20;99.90
64654;DHT22;51065;48.884;12.598;2023-04-15T02:14:02;6.20;99.90
64654;DHT22;51065;48.884;12.598;2023-04-15T02:16:29;6.20;99.90
64654;DHT22;51065;48.884;12.598;2023-04-15T02:18:54;6.20;99.90
64654;DHT22;51065;48.884;12.598;2023-04-15T02:21:20;6.20;99.90
64654;DHT22;51065;48.884;12.598;2023-04-15T02:23:46;6.20;99.90
64654;DHT22;51065;48.884;12.598;2023-04-15T02:26:13;6.20;99.90
64654;DHT22;51065;48.884;12.598;2023-04-15T02:28:38;6.20;99.90
64654;DHT22;51065;48.884;12.598;2023-04-15T02:31:05;6.20;99.90
64654;DHT22;51065;48.884;12.598;2023-04-15T02:33:31;6.20;99.90
64654;DHT22;51065;48.884;12.598;2023-04-15T02:35:56;6.10;99.90
64654;DHT22;51065;48.884;12.598;2023-04-15T02:38:23;6.10;99.90
64654;DHT22;51065;48.884;12.598;2023-04-15T02:40:49;6.10;99.90
64654;DHT22;51065;48.884;12.598;2023-04-15T02:43:16;6.00;99.90
64654;DHT22;51065;48.884;12.598;2023-04-15T02:45:42;6.00;99.90
64654;DHT22;51065;48.884;12.598;2023-04-15T02:48:08;5.90;99.90
64654;DHT22;51065;48.884;12.598;2023-04-15T02:50:34;6.00;99.90
64654;DHT22;51065;48.884;12.598;2023-04-15T02:53:07;5.90;99.90
64654;DHT22;51065;48.884;12.598;2023-04-15T02:55:32;5.90;99.90
64654;DHT22;51065;48.884;12.598;2023-04-15T02:57:58;5.90;99.90
64654;DHT22;51065;48.884;12.598;2023-04-15T03:00:25;5.90;99.90
64654;DHT22;51065;48.884;12.598;2023-04-15T03:02:57;5.90;99.90
64654;DHT22;51065;48.884;12.598;2023-04-15T03:05:22;5.90;99.90
64654;DHT22;51065;48.884;12.598;2023-04-15T03:07:50;5.90;99.90
64654;DHT22;51065;48.884;12.598;2023-04-15T03:10:16;5.90;99.90
64654;DHT22;51065;48.884;12.598;2023-04-15T03:12:41;5.90;99.90
64654;DHT22;51065;48.884;12.598;2023-04-15T03:15:08;5.90;99.90
64654;DHT22;51065;48.884;12.598;2023-04-15T03:17:34;5.90;99.90
64654;DHT22;51065;48.884;12.598;2023-04-15T03:20:04;5.90;99.90
64654;DHT22;51065;48.884;12.598;2023-04-15T03:22:30;5.90;99.90
64654;DHT22;51065;48.884;12.598;2023-04-15T03:24:56;5.90;99.90
64654;DHT22;51065;48.884;12.598;2023-04-15T03:27:22;5.90;99.90
64654;DHT22;51065;48.884;12.598;2023-04-15T03:29:48;5.90;99.90
64654;DHT22;51065;48.884;12.598;2023-04-15T03:32:13;5.90;99.90
64654;DHT22;51065;48.884;12.598;2023-04-15T03:34:40;5.90;99.90
64654;DHT22;51065;48.884;12.598;2023-04-15T03:37:06;5.90;99.90
64654;DHT22;51065;48.884;12.598;2023-04-15T03:39:32;5.90;99.90
64654;DHT22;51065;48.884;12.598;2023-04-15T03:41:58;5.90;99.90
64654;DHT22;51065;48.884;12.598;2023-04-15T03:44:25;5.90;99.90
64654;DHT22;51065;48.884;12.598;2023-04-15T03:46:50;5.90;99.90
64654;DHT22;51065;48.884;12.598;2023-04-15T03:49:16;5.80;99.90
64654;DHT22;51065;48.884;12.598;2023-04-15T03:51:43;5.80;99.90
64654;DHT22;51065;48.884;12.598;2023-04-15T03:54:09;5.80;99.90
64654;DHT22;51065;48.884;12.598;2023-04-15T03:56:34;5.80;99.90
64654;DHT22;51065;48.884;12.598;2023-04-15T03:59:00;5.80;99.90
64654;DHT22;51065;48.884;12.598;2023-04-15T04:01:26;5.80;99.90
64654;DHT22;51065;48.884;12.598;2023-04-15T04:03:51;5.80;99.90
64654;DHT22;51065;48.884;12.598;2023-04-15T04:06:17;5.80;99.90
64654;DHT22;51065;48.884;12.598;2023-04-15T04:08:42;5.80;99.90
64654;DHT22;51065;48.884;12.598;2023-04-15T04:11:08;5.80;99.90
64654;DHT22;51065;48.884;12.598;2023-04-15T04:13:34;5.80;99.90
64654;DHT22;51065;48.884;12.598;2023-04-15T04:15:59;5.80;99.90
64654;DHT22;51065;48.884;12.598;2023-04-15T04:18:25;5.80;99.90
64654;DHT22;51065;48.884;12.598;2023-04-15T04:20:50;5.80;99.90
64654;DHT22;51065;48.884;12.598;2023-04-15T04:23:16;5.80;99.90
64654;DHT22;51065;48.884;12.598;2023-04-15T04:25:41;5.80;99.90
64654;DHT22;51065;48.884;12.598;2023-04-15T04:28:07;5.80;99.90
64654;DHT22;51065;48.884;12.598;2023-04-15T04:30:34;5.80;99.90
64654;DHT22;51065;48.884;12.598;2023-04-15T04:33:00;5.80;99.90
64654;DHT22;51065;48.884;12.598;2023-04-15T04:35:26;5.80;99.90
64654;DHT22;51065;48.884;12.598;2023-04-15T04:37:52;5.70;99.90
64654;DHT22;51065;48.884;12.598;2023-04-15T04:40:18;5.70;99.90
64654;DHT22;51065;48.884;12.598;2023-04-15T04:42:43;5.70;99.90
64654;DHT22;51065;48.884;12.598;2023-04-15T04:45:10;5.70;99.90
64654;DHT22;51065;48.884;12.598;2023-04-15T04:47:35;5.70;99.90
64654;DHT22;51065;48.884;12.598;2023-04-15T04:50:01;5.80;99.90
64654;DHT22;51065;48.884;12.598;2023-04-15T04:52:26;5.70;99.90
64654;DHT22;51065;48.884;12.598;2023-04-15T04:54:52;5.80;99.90
64654;DHT22;51065;48.884;12.598;2023-04-15T04:57:17;5.80;99.90
64654;DHT22;51065;48.884;12.598;2023-04-15T04:59:43;5.80;99.90
64654;DHT22;51065;48.884;12.598;2023-04-15T05:02:08;5.80;99.90
64654;DHT22;51065;48.884;12.598;2023-04-15T05:04:34;5.80;99.90
64654;DHT22;51065;48.884;12.598;2023-04-15T05:07:01;5.80;99.90
64654;DHT22;51065;48.884;12.598;2023-04-15T05:09:26;5.80;99.90
64654;DHT22;51065;48.884;12.598;2023-04-15T05:11:52;5.80;99.90
64654;DHT22;51065;48.884;12.598;2023-04-15T05:14:18;5.80;99.90
64654;DHT22;51065;48.884;12.598;2023-04-15T05:16:43;5.80;99.90
64654;DHT22;51065;48.884;12.598;2023-04-15T05:19:09;5.80;99.90
64654;DHT22;51065;48.884;12.598;2023-04-15T05:21:35;5.80;99.90
64654;DHT22;51065;48.884;12.598;2023-04-15T05:24:00;5.80;99.90
64654;DHT22;51065;48.884;12.598;2023-04-15T05:26:26;5.80;99.90
64654;DHT22;51065;48.884;12.598;2023-04-15T05:28:51;5.80;99.90
64654;DHT22;51065;48.884;12.598;2023-04-15T05:31:17;5.80;99.90
64654;DHT22;51065;48.884;12.598;2023-04-15T05:33:43;5.80;99.90
64654;DHT22;51065;48.884;12.598;2023-04-15T05:36:08;5.80;99.90
64654;DHT22;51065;48.884;12.598;2023-04-15T05:38:34;5.80;99.90
64654;DHT22;51065;48.884;12.598;2023-04-15T05:41:00;5.80;99.90
64654;DHT22;51065;48.884;12.598;2023-04-15T05:43:25;5.80;99.90
64654;DHT22;51065;48.884;12.598;2023-04-15T05:45:51;5.80;99.90
64654;DHT22;51065;48.884;12.598;2023-04-15T05:48:16;5.80;99.90
64654;DHT22;51065;48.884;12.598;2023-04-15T05:50:42;5.80;99.90
64654;DHT22;51065;48.884;12.598;2023-04-15T05:53:08;5.80;99.90
64654;DHT22;51065;48.884;12.598;2023-04-15T05:55:33;5.80;99.90
64654;DHT22;51065;48.884;12.598;2023-04-15T05:57:59;5.70;99.90
64654;DHT22;51065;48.884;12.598;2023-04-15T06:00:25;5.70;99.90
64654;DHT22;51065;48.884;12.598;2023-04-15T06:02:50;5.70;99.90
64654;DHT22;51065;48.884;12.598;2023-04-15T06:05:17;5.70;99.90
64654;DHT22;51065;48.884;12.598;2023-04-15T06:07:42;5.70;99.90
64654;DHT22;51065;48.884;12.598;2023-04-15T06:10:08;5.70;99.90
64654;DHT22;51065;48.884;12.598;2023-04-15T06:12:34;5.80;99.90
64654;DHT22;51065;48.884;12.598;2023-04-15T06:15:00;5.80;99.90
64654;DHT22;51065;48.884;12.598;2023-04-15T06:17:26;5.80;99.90
64654;DHT22;51065;48.884;12.598;2023-04-15T06:19:51;5.80;99.90
64654;DHT22;51065;48.884;12.598;2023-04-15T06:22:21;5.80;99.90
64654;DHT22;51065;48.884;12.598;2023-04-15T06:24:47;5.80;99.90
64654;DHT22;51065;48.884;12.598;2023-04-15T06:27:15;5.80;99.90
64654;DHT22;51065;48.884;12.598;2023-04-15T06:29:40;5.90;99.90
64654;DHT22;51065;48.884;12.598;2023-04-15T06:32:06;5.90;99.90
64654;DHT22;51065;48.884;12.598;2023-04-15T06:34:33;5.80;99.90
64654;DHT22;51065;48.884;12.598;2023-04-15T06:36:58;5.80;99.90
64654;DHT22;51065;48.884;12.598;2023-04-15T06:39:25;5.80;99.90
64654;DHT22;51065;48.884;12.598;2023-04-15T06:41:51;5.90;99.90
64654;DHT22;51065;48.884;12.598;2023-04-15T06:44:17;5.90;99.90
64654;DHT22;51065;48.884;12.598;2023-04-15T06:46:43;5.90;99.90
64654;DHT22;51065;48.884;12.598;2023-04-15T06:49:09;5.90;99.90
64654;DHT22;51065;48.884;12.598;2023-04-15T06:51:35;5.90;99.90
64654;DHT22;51065;48.884;12.598;2023-04-15T06:54:01;5.90;99.90
64654;DHT22;51065;48.884;12.598;2023-04-15T06:56:30;5.90;99.90
64654;DHT22;51065;48.884;12.598;2023-04-15T06:58:56;5.90;99.90
64654;DHT22;51065;48.884;12.598;2023-04-15T07:01:22;5.90;99.90
64654;DHT22;51065;48.884;12.598;2023-04-15T07:03:47;5.90;99.90
64654;DHT22;51065;48.884;12.598;2023-04-15T07:06:13;6.00;99.90
64654;DHT22;51065;48.884;12.598;2023-04-15T07:08:38;6.00;99.90
64654;DHT22;51065;48.884;12.598;2023-04-15T07:11:04;6.00;99.90
64654;DHT22;51065;48.884;12.598;2023-04-15T07:13:31;6.00;99.90
64654;DHT22;51065;48.884;12.598;2023-04-15T07:15:57;6.00;99.90
64654;DHT22;51065;48.884;12.598;2023-04-15T07:18:22;5.90;99.90
64654;DHT22;51065;48.884;12.598;2023-04-15T07:20:48;5.90;99.90
64654;DHT22;51065;48.884;12.598;2023-04-15T07:23:13;5.90;99.90
64654;DHT22;51065;48.884;12.598;2023-04-15T07:25:39;5.80;99.90
64654;DHT22;51065;48.884;12.598;2023-04-15T07:28:05;5.80;99.90
64654;DHT22;51065;48.884;12.598;2023-04-15T07:30:30;5.90;99.90
64654;DHT22;51065;48.884;12.598;2023-04-15T07:32:57;5.90;99.90
64654;DHT22;51065;48.884;12.598;2023-04-15T07:35:23;5.90;99.90
64654;DHT22;51065;48.884;12.598;2023-04-15T07:37:49;5.90;99.90
64654;DHT22;51065;48.884;12.598;2023-04-15T07:40:15;5.90;99.90
64654;DHT22;51065;48.884;12.598;2023-04-15T07:42:41;5.90;99.90
64654;DHT22;51065;48.884;12.598;2023-04-15T07:45:07;6.00;99.90
64654;DHT22;51065;48.884;12.598;2023-04-15T07:47:33;6.00;99.90
64654;DHT22;51065;48.884;12.598;2023-04-15T07:49:59;6.10;99.90
64654;DHT22;51065;48.884;12.598;2023-04-15T07:52:24;6.10;99.90
64654;DHT22;51065;48.884;12.598;2023-04-15T07:54:50;6.10;99.90
64654;DHT22;51065;48.884;12.598;2023-04-15T07:57:16;6.10;99.90
64654;DHT22;51065;48.884;12.598;2023-04-15T07:59:41;6.10;99.90
64654;DHT22;51065;48.884;12.598;2023-04-15T08:02:07;6.10;99.90
64654;DHT22;51065;48.884;12.598;2023-04-15T08:04:33;6.10;99.90
64654;DHT22;51065;48.884;12.598;2023-04-15T08:06:58;6.10;99.90
64654;DHT22;51065;48.884;12.598;2023-04-15T08:09:24;6.10;99.90
64654;DHT22;51065;48.884;12.598;2023-04-15T08:11:51;6.30;99.90
64654;DHT22;51065;48.884;12.598;2023-04-15T08:14:17;6.30;99.90
64654;DHT22;51065;48.884;12.598;2023-04-15T08:16:43;6.30;99.90
64654;DHT22;51065;48.884;12.598;2023-04-15T08:19:09;6.30;99.90
64654;DHT22;51065;48.884;12.598;2023-04-15T08:21:35;6.30;99.90
64654;DHT22;51065;48.884;12.598;2023-04-15T08:24:01;6.40;99.90
64654;DHT22;51065;48.884;12.598;2023-04-15T08:26:27;6.40;99.90
64654;DHT22;51065;48.884;12.598;2023-04-15T08:28:53;6.40;99.90
64654;DHT22;51065;48.884;12.598;2023-04-15T08:31:18;6.40;99.90
64654;DHT22;51065;48.884;12.598;2023-04-15T08:33:44;6.60;99.90
64654;DHT22;51065;48.884;12.598;2023-04-15T08:36:10;6.60;99.90
64654;DHT22;51065;48.884;12.598;2023-04-15T08:38:36;6.70;99.90
64654;DHT22;51065;48.884;12.598;2023-04-15T08:41:16;6.70;99.90
64654;DHT22;51065;48.884;12.598;2023-04-15T08:43:48;6.60;99.90
64654;DHT22;51065;48.884;12.598;2023-04-15T08:46:16;6.60;99.90
64654;DHT22;51065;48.884;12.598;2023-04-15T08:48:43;6.60;99.90
64654;DHT22;51065;48.884;12.598;2023-04-15T08:51:09;6.60;99.90
64654;DHT22;51065;48.884;12.598;2023-04-15T08:53:35;6.60;99.90
64654;DHT22;51065;48.884;12.598;2023-04-15T08:56:04;6.60;99.90
64654;DHT22;51065;48.884;12.598;2023-04-15T08:58:32;6.60;99.90
64654;DHT22;51065;48.884;12.598;2023-04-15T09:00:58;6.70;99.90
64654;DHT22;51065;48.884;12.598;2023-04-15T09:03:24;6.70;99.90
64654;DHT22;51065;48.884;12.598;2023-04-15T09:05:50;6.70;99.90
64654;DHT22;51065;48.884;12.598;2023-04-15T09:08:16;6.70;99.90
64654;DHT22;51065;48.884;12.598;2023-04-15T09:10:42;6.70;99.90
64654;DHT22;51065;48.884;12.598;2023-04-15T09:13:07;6.80;99.90
64654;DHT22;51065;48.884;12.598;2023-04-15T09:15:37;6.90;99.90
64654;DHT22;51065;48.884;12.598;2023-04-15T09:18:03;6.90;99.90
64654;DHT22;51065;48.884;12.598;2023-04-15T09:20:28;6.80;99.90
64654;DHT22;51065;48.884;12.598;2023-04-15T09:22:54;6.80;99.90
64654;DHT22;51065;48.884;12.598;2023-04-15T09:28:00;6.90;99.90
64654;DHT22;51065;48.884;12.598;2023-04-15T09:30:28;7.00;99.90
64654;DHT22;51065;48.884;12.598;2023-04-15T09:32:59;7.10;99.90
64654;DHT22;51065;48.884;12.598;2023-04-15T09:35:25;7.30;99.90
64654;DHT22;51065;48.884;12.598;2023-04-15T09:37:52;7.40;99.90
64654;DHT22;51065;48.884;12.598;2023-04-15T09:43:00;7.60;99.90
64654;DHT22;51065;48.884;12.598;2023-04-15T09:45:30;7.80;99.90
64654;DHT22;51065;48.884;12.598;2023-04-15T09:47:57;8.10;99.90
64654;DHT22;51065;48.884;12.598;2023-04-15T09:50:26;8.40;99.90
64654;DHT22;51065;48.884;12.598;2023-04-15T09:52:52;8.40;99.90
64654;DHT22;51065;48.884;12.598;2023-04-15T09:55:18;8.50;99.90
64654;DHT22;51065;48.884;12.598;2023-04-15T09:57:45;8.40;99.90
64654;DHT22;51065;48.884;12.598;2023-04-15T10:00:12;8.30;99.90
64654;DHT22;51065;48.884;12.598;2023-04-15T10:02:42;8.10;99.90
64654;DHT22;51065;48.884;12.598;2023-04-15T10:05:12;8.10;99.90
64654;DHT22;51065;48.884;12.598;2023-04-15T10:07:38;8.00;99.90
64654;DHT22;51065;48.884;12.598;2023-04-15T10:10:06;7.70;99.90
64654;DHT22;51065;48.884;12.598;2023-04-15T10:12:32;7.50;99.90
64654;DHT22;51065;48.884;12.598;2023-04-15T10:14:59;7.50;99.90
64654;DHT22;51065;48.884;12.598;2023-04-15T10:17:29;7.30;99.90
64654;DHT22;51065;48.884;12.598;2023-04-15T10:20:00;7.40;99.90
64654;DHT22;51065;48.884;12.598;2023-04-15T10:22:27;7.50;99.90
64654;DHT22;51065;48.884;12.598;2023-04-15T10:24:54;7.50;99.90
64654;DHT22;51065;48.884;12.598;2023-04-15T10:27:20;7.60;99.90
64654;DHT22;51065;48.884;12.598;2023-04-15T10:29:48;7.60;99.90
64654;DHT22;51065;48.884;12.598;2023-04-15T10:32:14;7.90;99.90
64654;DHT22;51065;48.884;12.598;2023-04-15T10:34:41;7.90;99.90
64654;DHT22;51065;48.884;12.598;2023-04-15T10:37:09;7.80;99.90
64654;DHT22;51065;48.884;12.598;2023-04-15T10:42:15;8.00;99.90
64654;DHT22;51065;48.884;12.598;2023-04-15T10:44:49;7.90;99.90
64654;DHT22;51065;48.884;12.598;2023-04-15T10:47:19;8.00;99.90
64654;DHT22;51065;48.884;12.598;2023-04-15T10:49:50;8.00;99.90
64654;DHT22;51065;48.884;12.598;2023-04-15T10:52:22;8.00;99.90
64654;DHT22;51065;48.884;12.598;2023-04-15T10:54:48;8.00;99.90
64654;DHT22;51065;48.884;12.598;2023-04-15T10:57:23;7.80;99.90
64654;DHT22;51065;48.884;12.598;2023-04-15T10:59:59;7.80;99.90
64654;DHT22;51065;48.884;12.598;2023-04-15T11:05:11;7.70;99.90
64654;DHT22;51065;48.884;12.598;2023-04-15T11:12:38;7.80;99.90
64654;DHT22;51065;48.884;12.598;2023-04-15T11:15:41;7.80;99.90
64654;DHT22;51065;48.884;12.598;2023-04-15T11:18:19;7.90;99.90
64654;DHT22;51065;48.884;12.598;2023-04-15T11:20:53;8.00;99.90
64654;DHT22;51065;48.884;12.598;2023-04-15T11:23:40;8.00;99.90
64654;DHT22;51065;48.884;12.598;2023-04-15T11:26:11;7.90;99.90
64654;DHT22;51065;48.884;12.598;2023-04-15T11:28:38;7.90;99.90
64654;DHT22;51065;48.884;12.598;2023-04-15T11:31:15;7.90;99.90
64654;DHT22;51065;48.884;12.598;2023-04-15T11:33:58;7.90;99.90
64654;DHT22;51065;48.884;12.598;2023-04-15T11:36:27;7.90;99.90
64654;DHT22;51065;48.884;12.598;2023-04-15T11:38:53;7.90;99.90
64654;DHT22;51065;48.884;12.598;2023-04-15T11:41:20;7.90;99.90
64654;DHT22;51065;48.884;12.598;2023-04-15T11:43:46;8.00;99.90
64654;DHT22;51065;48.884;12.598;2023-04-15T11:46:12;8.10;99.90
64654;DHT22;51065;48.884;12.598;2023-04-15T11:48:44;8.20;99.90
64654;DHT22;51065;48.884;12.598;2023-04-15T11:51:11;8.20;99.90
64654;DHT22;51065;48.884;12.598;2023-04-15T11:53:46;8.20;99.90
64654;DHT22;51065;48.884;12.598;2023-04-15T11:56:23;8.10;99.90
64654;DHT22;51065;48.884;12.598;2023-04-15T11:58:53;8.10;99.90
64654;DHT22;51065;48.884;12.598;2023-04-15T12:01:19;8.10;99.90
64654;DHT22;51065;48.884;12.598;2023-04-15T12:03:45;8.10;99.90
64654;DHT22;51065;48.884;12.598;2023-04-15T12:06:22;8.10;99.90
64654;DHT22;51065;48.884;12.598;2023-04-15T12:09:11;8.10;99.90
64654;DHT22;51065;48.884;12.598;2023-04-15T12:11:56;7.90;99.90
64654;DHT22;51065;48.884;12.598;2023-04-15T12:14:32;7.80;99.90
64654;DHT22;51065;48.884;12.598;2023-04-15T12:17:03;7.70;99.90
64654;DHT22;51065;48.884;12.598;2023-04-15T12:19:29;7.60;99.90
64654;DHT22;51065;48.884;12.598;2023-04-15T12:21:59;7.40;99.90
64654;DHT22;51065;48.884;12.598;2023-04-15T12:24:25;7.50;99.90
64654;DHT22;51065;48.884;12.598;2023-04-15T12:26:53;7.50;99.90
64654;DHT22;51065;48.884;12.598;2023-04-15T12:29:23;7.40;99.90
64654;DHT22;51065;48.884;12.598;2023-04-15T12:31:51;7.40;99.90
64654;DHT22;51065;48.884;12.598;2023-04-15T12:34:24;7.40;99.90
64654;DHT22;51065;48.884;12.598;2023-04-15T12:36:50;7.50;99.90
64654;DHT22;51065;48.884;12.598;2023-04-15T12:39:16;7.60;99.90
64654;DHT22;51065;48.884;12.598;2023-04-15T12:41:42;7.70;99.90
64654;DHT22;51065;48.884;12.598;2023-04-15T12:44:07;7.70;99.90
64654;DHT22;51065;48.884;12.598;2023-04-15T12:46:33;7.80;99.90
64654;DHT22;51065;48.884;12.598;2023-04-15T12:48:59;7.90;99.90
64654;DHT22;51065;48.884;12.598;2023-04-15T12:51:25;8.00;99.90
64654;DHT22;51065;48.884;12.598;2023-04-15T12:53:51;8.10;99.90
64654;DHT22;51065;48.884;12.598;2023-04-15T12:56:17;8.20;99.90
64654;DHT22;51065;48.884;12.598;2023-04-15T12:58:43;8.20;99.90
64654;DHT22;51065;48.884;12.598;2023-04-15T13:01:09;8.30;99.90
64654;DHT22;51065;48.884;12.598;2023-04-15T13:03:35;8.20;99.90
64654;DHT22;51065;48.884;12.598;2023-04-15T13:06:00;8.10;99.90
64654;DHT22;51065;48.884;12.598;2023-04-15T13:08:26;8.10;99.90
64654;DHT22;51065;48.884;12.598;2023-04-15T13:10:52;8.10;99.90
64654;DHT22;51065;48.884;12.598;2023-04-15T13:13:18;8.10;99.90
64654;DHT22;51065;48.884;12.598;2023-04-15T13:15:43;8.10;99.90
64654;DHT22;51065;48.884;12.598;2023-04-15T13:18:10;8.00;99.90
64654;DHT22;51065;48.884;12.598;2023-04-15T13:20:36;8.10;99.90
64654;DHT22;51065;48.884;12.598;2023-04-15T13:23:01;8.00;99.90
64654;DHT22;51065;48.884;12.598;2023-04-15T13:25:27;7.90;99.90
64654;DHT22;51065;48.884;12.598;2023-04-15T13:27:52;7.80;99.90
64654;DHT22;51065;48.884;12.598;2023-04-15T13:30:18;7.60;99.90
64654;DHT22;51065;48.884;12.598;2023-04-15T13:32:44;7.60;99.90
64654;DHT22;51065;48.884;12.598;2023-04-15T13:35:09;7.50;99.90
64654;DHT22;51065;48.884;12.598;2023-04-15T13:37:35;7.50;99.90
64654;DHT22;51065;48.884;12.598;2023-04-15T13:40:01;7.40;99.90
64654;DHT22;51065;48.884;12.598;2023-04-15T13:42:27;7.30;99.90
64654;DHT22;51065;48.884;12.598;2023-04-15T13:44:52;7.30;99.90
64654;DHT22;51065;48.884;12.598;2023-04-15T13:47:18;7.40;99.90
64654;DHT22;51065;48.884;12.598;2023-04-15T13:49:44;7.50;99.90
64654;DHT22;51065;48.884;12.598;2023-04-15T13:52:10;7.50;99.90
64654;DHT22;51065;48.884;12.598;2023-04-15T13:54:36;7.50;99.90
64654;DHT22;51065;48.884;12.598;2023-04-15T13:57:02;7.50;99.90
64654;DHT22;51065;48.884;12.598;2023-04-15T13:59:27;7.60;99.90
64654;DHT22;51065;48.884;12.598;2023-04-15T14:01:53;7.60;99.90
64654;DHT22;51065;48.884;12.598;2023-04-15T14:04:19;7.70;99.90
64654;DHT22;51065;48.884;12.598;2023-04-15T14:06:44;7.60;99.90
64654;DHT22;51065;48.884;12.598;2023-04-15T14:09:10;7.60;99.90
64654;DHT22;51065;48.884;12.598;2023-04-15T14:11:38;7.50;99.90
64654;DHT22;51065;48.884;12.598;2023-04-15T14:14:04;7.50;99.90
64654;DHT22;51065;48.884;12.598;2023-04-15T14:16:31;7.60;99.90
64654;DHT22;51065;48.884;12.598;2023-04-15T14:18:57;7.60;99.90
64654;DHT22;51065;48.884;12.598;2023-04-15T14:21:23;7.60;99.90
64654;DHT22;51065;48.884;12.598;2023-04-15T14:23:49;7.60;99.90
64654;DHT22;51065;48.884;12.598;2023-04-15T14:26:14;7.70;99.90
64654;DHT22;51065;48.884;12.598;2023-04-15T14:28:40;7.80;99.90
64654;DHT22;51065;48.884;12.598;2023-04-15T14:31:05;7.80;99.90
64654;DHT22;51065;48.884;12.598;2023-04-15T14:33:31;7.80;99.90
64654;DHT22;51065;48.884;12.598;2023-04-15T14:35:57;7.80;99.90
64654;DHT22;51065;48.884;12.598;2023-04-15T14:38:22;7.90;99.90
64654;DHT22;51065;48.884;12.598;2023-04-15T14:40:48;7.80;99.90
64654;DHT22;51065;48.884;12.598;2023-04-15T14:43:13;7.90;99.90
64654;DHT22;51065;48.884;12.598;2023-04-15T14:45:39;8.00;99.90
64654;DHT22;51065;48.884;12.598;2023-04-15T14:48:05;8.20;99.90
64654;DHT22;51065;48.884;12.598;2023-04-15T14:50:37;8.20;99.90
64654;DHT22;51065;48.884;12.598;2023-04-15T14:53:03;8.20;99.90
64654;DHT22;51065;48.884;12.598;2023-04-15T14:55:29;8.20;99.90
64654;DHT22;51065;48.884;12.598;2023-04-15T14:57:54;8.20;99.90
64654;DHT22;51065;48.884;12.598;2023-04-15T15:00:20;8.20;99.90
64654;DHT22;51065;48.884;12.598;2023-04-15T15:02:46;8.20;99.90
64654;DHT22;51065;48.884;12.598;2023-04-15T15:05:12;8.20;99.90
64654;DHT22;51065;48.884;12.598;2023-04-15T15:07:38;8.30;99.90
64654;DHT22;51065;48.884;12.598;2023-04-15T15:10:05;8.20;99.90
64654;DHT22;51065;48.884;12.598;2023-04-15T15:12:31;8.30;99.90
64654;DHT22;51065;48.884;12.598;2023-04-15T15:14:57;8.30;99.90
64654;DHT22;51065;48.884;12.598;2023-04-15T15:17:22;8.30;99.90
64654;DHT22;51065;48.884;12.598;2023-04-15T15:19:48;8.40;99.90
64654;DHT22;51065;48.884;12.598;2023-04-15T15:22:13;8.40;99.90
64654;DHT22;51065;48.884;12.598;2023-04-15T15:24:40;8.30;99.90
64654;DHT22;51065;48.884;12.598;2023-04-15T15:27:05;8.30;99.90
64654;DHT22;51065;48.884;12.598;2023-04-15T15:29:31;8.20;99.90
64654;DHT22;51065;48.884;12.598;2023-04-15T15:31:57;8.10;99.90
64654;DHT22;51065;48.884;12.598;2023-04-15T15:34:22;8.00;99.90
64654;DHT22;51065;48.884;12.598;2023-04-15T15:36:48;7.90;99.90
64654;DHT22;51065;48.884;12.598;2023-04-15T15:39:13;7.90;99.90
64654;DHT22;51065;48.884;12.598;2023-04-15T15:41:39;7.80;99.90
64654;DHT22;51065;48.884;12.598;2023-04-15T15:44:04;7.80;99.90